createdAt,value
2018-09-01T00:00:12.883Z,58.16
2018-09-01T00:00:32.796Z,58.10
2018-09-01T00:00:53.443Z,58.02
2018-09-01T00:01:13.300Z,58.14
2018-09-01T00:01:33.977Z,58.18
2018-09-01T00:01:54.210Z,58.13
2018-09-01T00:02:14.068Z,58.14
2018-09-01T00:02:34.740Z,58.11
2018-09-01T00:02:54.601Z,58.11
2018-09-01T00:03:14.951Z,58.25
2018-09-01T00:03:35.707Z,58.16
2018-09-01T00:03:55.571Z,58.29
2018-09-01T00:04:16.010Z,58.18
2018-09-01T00:04:36.685Z,58.27
2018-09-01T00:04:56.554Z,58.48
2018-09-01T00:05:17.085Z,58.35
2018-09-01T00:05:37.281Z,58.28
2018-09-01T00:05:57.149Z,58.32
2018-09-01T00:06:17.521Z,58.35
2018-09-01T00:06:38.142Z,58.26
2018-09-01T00:06:58.020Z,58.39
2018-09-01T00:07:18.735Z,58.41
2018-09-01T00:07:38.821Z,58.42
2018-09-01T00:07:58.680Z,58.49
2018-09-01T00:08:19.392Z,58.39
2018-09-01T00:08:39.643Z,58.37
2018-09-01T00:08:59.511Z,58.42
2018-09-01T00:09:20.226Z,58.43
2018-09-01T00:09:40.098Z,58.43
2018-09-01T00:10:00.448Z,58.45
2018-09-01T00:10:21.144Z,58.46
2018-09-01T00:10:41.049Z,58.56
2018-09-01T00:11:01.456Z,58.56
2018-09-01T00:11:22.212Z,58.66
2018-09-01T00:11:42.006Z,58.74
2018-09-01T00:12:02.547Z,58.74
2018-09-01T00:12:22.697Z,58.81
2018-09-01T00:12:42.566Z,58.84
2018-09-01T00:13:03.085Z,58.88
2018-09-01T00:13:23.230Z,58.81
2018-09-01T00:13:43.091Z,58.97
2018-09-01T00:14:03.777Z,59.12
2018-09-01T00:14:23.936Z,58.95
2018-09-01T00:14:43.795Z,59.00
2018-09-01T00:15:04.566Z,58.98
2018-09-01T00:15:24.418Z,58.96
2018-09-01T00:15:44.776Z,58.96
2018-09-01T00:16:05.493Z,58.94
2018-09-01T00:16:25.404Z,58.84
2018-09-01T00:16:45.764Z,58.88
2018-09-01T00:17:06.473Z,59.05
2018-09-01T00:17:26.350Z,58.96
2018-09-01T00:17:46.698Z,58.92
2018-09-01T00:18:07.360Z,59.00
2018-09-01T00:18:27.255Z,59.07
2018-09-01T00:18:47.602Z,58.98
2018-09-01T00:19:08.197Z,59.06
2018-09-01T00:19:28.074Z,59.02
2018-09-01T00:19:48.745Z,59.07
2018-09-01T00:20:08.610Z,59.45
2018-09-01T00:20:28.983Z,59.23
2018-09-01T00:20:49.713Z,59.32
2018-09-01T00:21:09.570Z,59.21
2018-09-01T00:21:29.933Z,59.25
2018-09-01T00:21:50.652Z,59.28
2018-09-01T00:22:10.514Z,59.26
2018-09-01T00:22:30.881Z,59.27
2018-09-01T00:22:51.553Z,59.34
2018-09-01T00:23:11.404Z,59.28
2018-09-01T00:23:31.753Z,59.30
2018-09-01T00:23:52.399Z,59.40
2018-09-01T00:24:12.254Z,59.45
2018-09-01T00:24:32.662Z,59.41
2018-09-01T00:24:53.308Z,59.42
2018-09-01T00:25:13.301Z,59.45
2018-09-01T00:25:33.981Z,59.40
2018-09-01T00:25:54.133Z,59.38
2018-09-01T00:26:14.108Z,59.50
2018-09-01T00:26:54.665Z,59.45
2018-09-01T00:27:14.526Z,59.47
2018-09-01T00:27:35.219Z,59.57
2018-09-01T00:27:55.097Z,59.61
2018-09-01T00:28:15.465Z,59.74
2018-09-01T00:28:36.168Z,59.85
2018-09-01T00:28:56.029Z,59.79
2018-09-01T00:29:16.396Z,59.64
2018-09-01T00:29:37.095Z,59.66
2018-09-01T00:29:56.932Z,59.74
2018-09-01T00:30:17.617Z,59.71
2018-09-01T00:30:37.775Z,59.78
2018-09-01T00:30:57.611Z,59.86
2018-09-01T00:31:18.221Z,59.90
2018-09-01T00:31:38.366Z,59.93
2018-09-01T00:31:58.226Z,59.96
2018-09-01T00:32:18.897Z,59.80
2018-09-01T00:32:39.098Z,59.91
2018-09-01T00:32:58.937Z,59.90
2018-09-01T00:33:19.633Z,60.01
2018-09-01T00:33:39.646Z,59.96
2018-09-01T00:33:59.517Z,60.03
2018-09-01T00:34:20.256Z,60.13
2018-09-01T00:34:40.329Z,60.20
2018-09-01T00:35:00.305Z,60.12
2018-09-01T00:35:20.987Z,60.08
2018-09-01T00:35:40.855Z,60.14
2018-09-01T00:36:01.206Z,60.15
2018-09-01T00:36:21.878Z,60.20
2018-09-01T00:37:02.676Z,60.40
2018-09-01T00:37:22.450Z,60.45
2018-09-01T00:37:42.331Z,60.51
2018-09-01T00:38:02.961Z,60.52
2018-09-01T00:38:23.110Z,60.53
2018-09-01T00:38:43.161Z,60.52
2018-09-01T00:39:03.132Z,60.49
2018-09-01T00:39:23.789Z,60.48
2018-09-01T00:39:43.645Z,60.57
2018-09-01T00:40:04.360Z,60.54
2018-09-01T00:40:24.377Z,60.72
2018-09-01T00:40:44.241Z,60.49
2018-09-01T00:41:04.895Z,60.64
2018-09-01T00:41:25.019Z,60.50
2018-09-01T00:41:44.882Z,60.53
2018-09-01T00:42:05.576Z,60.48
2018-09-01T00:42:25.447Z,60.49
2018-09-01T00:42:45.806Z,60.53
2018-09-01T00:43:06.542Z,60.60
2018-09-01T00:43:26.435Z,60.57
2018-09-01T00:43:47.016Z,60.59
2018-09-01T00:44:07.240Z,60.91
2018-09-01T00:44:27.092Z,60.90
2018-09-01T00:44:47.456Z,60.74
2018-09-01T00:45:08.104Z,60.80
2018-09-01T00:45:27.962Z,61.05
2018-09-01T00:45:48.616Z,60.94
2018-09-01T00:46:08.486Z,61.06
2018-09-01T00:46:28.860Z,61.06
2018-09-01T00:46:49.593Z,61.05
2018-09-01T00:47:09.856Z,61.30
2018-09-01T00:47:29.714Z,61.09
2018-09-01T00:47:50.416Z,61.19
2018-09-01T00:48:10.564Z,61.15
2018-09-01T00:48:30.423Z,61.12
2018-09-01T00:48:51.068Z,61.02
2018-09-01T00:49:10.977Z,60.95
2018-09-01T00:49:31.333Z,61.16
2018-09-01T00:49:52.039Z,61.00
2018-09-01T00:50:11.900Z,61.12
2018-09-01T00:50:32.260Z,61.06
2018-09-01T00:50:52.899Z,60.98
2018-09-01T00:51:12.761Z,60.97
2018-09-01T00:51:33.304Z,61.05
2018-09-01T00:51:53.459Z,61.21
2018-09-01T00:52:13.318Z,61.10
2018-09-01T00:52:33.973Z,61.14
2018-09-01T00:52:54.273Z,61.12
2018-09-01T00:53:14.122Z,61.20
2018-09-01T00:53:34.821Z,61.21
2018-09-01T00:53:54.673Z,61.33
2018-09-01T00:54:15.032Z,61.42
2018-09-01T00:54:35.751Z,61.40
2018-09-01T00:54:55.598Z,61.30
2018-09-01T00:55:16.251Z,61.29
2018-09-01T00:55:36.426Z,61.39
2018-09-01T00:55:56.289Z,61.56
2018-09-01T00:56:16.653Z,61.83
2018-09-01T00:56:37.348Z,61.65
2018-09-01T00:56:57.338Z,61.62
2018-09-01T00:57:17.692Z,61.66
2018-09-01T00:57:38.346Z,61.65
2018-09-01T00:57:58.274Z,61.60
2018-09-01T00:58:18.979Z,61.56
2018-09-01T00:58:39.123Z,61.59
2018-09-01T00:58:58.977Z,61.73
2018-09-01T00:59:19.676Z,61.73
2018-09-01T00:59:39.680Z,61.69
2018-09-01T00:59:59.536Z,61.83
2018-09-01T01:00:20.240Z,61.95
2018-09-01T01:00:40.104Z,61.93
2018-09-01T01:01:20.840Z,62.01
2018-09-01T01:01:40.708Z,61.99
2018-09-01T01:02:01.059Z,62.00
2018-09-01T01:02:21.719Z,62.05
2018-09-01T01:02:41.584Z,62.01
2018-09-01T01:03:02.229Z,62.12
2018-09-01T01:03:22.387Z,62.26
2018-09-01T01:03:42.245Z,62.23
2018-09-01T01:04:02.914Z,62.22
2018-09-01T01:04:23.048Z,62.37
2018-09-01T01:04:42.906Z,62.21
2018-09-01T01:05:03.605Z,62.14
2018-09-01T01:05:23.885Z,62.09
2018-09-01T01:05:44.635Z,62.15
2018-09-01T01:06:04.346Z,62.19
2018-09-01T01:06:24.271Z,62.21
2018-09-01T01:06:44.627Z,62.23
2018-09-01T01:07:05.323Z,62.26
2018-09-01T01:07:25.167Z,62.35
2018-09-01T01:07:45.611Z,62.39
2018-09-01T01:08:06.344Z,62.47
2018-09-01T01:08:26.190Z,62.22
2018-09-01T01:08:46.548Z,62.29
2018-09-01T01:09:07.255Z,62.31
2018-09-01T01:09:27.143Z,62.32
2018-09-01T01:09:47.546Z,62.38
2018-09-01T01:10:08.005Z,62.69
2018-09-01T01:10:28.374Z,62.45
2018-09-01T01:10:49.073Z,62.47
2018-09-01T01:11:09.284Z,62.49
2018-09-01T01:11:29.127Z,62.58
2018-09-01T01:11:49.847Z,62.57
2018-09-01T01:12:09.879Z,62.50
2018-09-01T01:12:29.731Z,62.57
2018-09-01T01:12:50.462Z,62.47
2018-09-01T01:13:30.339Z,62.61
2018-09-01T01:13:51.072Z,62.72
2018-09-01T01:14:10.914Z,62.89
2018-09-01T01:14:31.272Z,62.76
2018-09-01T01:14:51.926Z,62.79
2018-09-01T01:15:11.872Z,62.82
2018-09-01T01:15:32.288Z,62.79
2018-09-01T01:15:52.933Z,62.87
2018-09-01T01:16:12.782Z,62.95
2018-09-01T01:16:33.468Z,62.90
2018-09-01T01:16:53.624Z,62.83
2018-09-01T01:17:13.484Z,62.95
2018-09-01T01:17:34.219Z,63.02
2018-09-01T01:17:54.348Z,62.91
2018-09-01T01:18:14.199Z,62.88
2018-09-01T01:18:34.938Z,62.89
2018-09-01T01:18:54.968Z,63.08
2018-09-01T01:19:14.823Z,63.02
2018-09-01T01:19:35.563Z,63.04
2018-09-01T01:19:55.424Z,62.88
2018-09-01T01:20:16.090Z,62.84
2018-09-01T01:20:36.302Z,62.92
2018-09-01T01:20:56.215Z,62.95
2018-09-01T01:21:16.588Z,63.01
2018-09-01T01:21:37.271Z,62.96
2018-09-01T01:21:57.130Z,63.03
2018-09-01T01:22:17.497Z,62.99
2018-09-01T01:22:38.130Z,62.98
2018-09-01T01:22:57.994Z,63.19
2018-09-01T01:23:18.660Z,63.04
2018-09-01T01:23:39.007Z,63.12
2018-09-01T01:23:59.200Z,63.04
2018-09-01T01:24:19.427Z,63.13
2018-09-01T01:24:39.361Z,63.12
2018-09-01T01:24:59.770Z,63.07
2018-09-01T01:25:20.489Z,63.18
2018-09-01T01:25:40.434Z,63.13
2018-09-01T01:26:00.940Z,63.19
2018-09-01T01:26:21.101Z,63.17
2018-09-01T01:26:40.945Z,63.25
2018-09-01T01:27:01.311Z,63.23
2018-09-01T01:27:22.023Z,63.35
2018-09-01T01:27:41.889Z,63.25
2018-09-01T01:28:02.524Z,63.42
2018-09-01T01:28:22.699Z,63.52
2018-09-01T01:28:42.569Z,63.42
2018-09-01T01:29:03.255Z,63.37
2018-09-01T01:29:23.418Z,63.36
2018-09-01T01:29:43.291Z,63.35
2018-09-01T01:30:03.982Z,63.45
2018-09-01T01:30:24.124Z,63.31
2018-09-01T01:30:43.989Z,63.52
2018-09-01T01:31:04.715Z,63.44
2018-09-01T01:31:24.609Z,63.34
2018-09-01T01:31:44.961Z,63.34
2018-09-01T01:32:05.682Z,63.28
2018-09-01T01:32:25.537Z,63.46
2018-09-01T01:32:45.903Z,63.47
2018-09-01T01:33:06.662Z,63.37
2018-09-01T01:33:26.510Z,63.38
2018-09-01T01:33:46.863Z,63.42
2018-09-01T01:34:07.513Z,63.37
2018-09-01T01:34:27.358Z,63.72
2018-09-01T01:34:47.843Z,63.53
2018-09-01T01:35:08.496Z,63.51
2018-09-01T01:35:28.348Z,63.56
2018-09-01T01:35:48.992Z,63.72
2018-09-01T01:36:09.036Z,63.69
2018-09-01T01:36:28.915Z,63.80
2018-09-01T01:36:49.596Z,63.71
2018-09-01T01:37:09.906Z,63.64
2018-09-01T01:37:29.770Z,63.71
2018-09-01T01:37:50.501Z,63.60
2018-09-01T01:38:10.369Z,63.74
2018-09-01T01:38:30.740Z,63.67
2018-09-01T01:38:51.395Z,63.77
2018-09-01T01:39:11.258Z,64.04
2018-09-01T01:39:31.614Z,64.00
2018-09-01T01:39:52.318Z,63.96
2018-09-01T01:40:12.162Z,63.85
2018-09-01T01:40:32.506Z,63.92
2018-09-01T01:40:53.149Z,63.95
2018-09-01T01:41:13.004Z,63.96
2018-09-01T01:41:53.675Z,63.98
2018-09-01T01:42:13.533Z,64.11
2018-09-01T01:42:34.304Z,64.24
2018-09-01T01:42:54.288Z,64.21
2018-09-01T01:43:14.639Z,64.09
2018-09-01T01:43:55.021Z,64.12
2018-09-01T01:44:15.463Z,64.12
2018-09-01T01:44:56.043Z,64.12
2018-09-01T01:45:16.232Z,64.20
2018-09-01T01:45:36.346Z,64.14
2018-09-01T01:45:56.192Z,64.16
2018-09-01T01:46:16.561Z,64.15
2018-09-01T01:46:37.279Z,64.26
2018-09-01T01:46:57.141Z,64.28
2018-09-01T01:47:17.494Z,64.40
2018-09-01T01:47:38.141Z,64.47
2018-09-01T01:47:58.002Z,64.50
2018-09-01T01:48:18.647Z,64.56
2018-09-01T01:48:38.797Z,64.42
2018-09-01T01:48:58.653Z,64.40
2018-09-01T01:49:19.358Z,64.52
2018-09-01T01:49:39.777Z,64.50
2018-09-01T01:49:59.514Z,64.55
2018-09-01T01:50:20.219Z,64.58
2018-09-01T01:50:40.073Z,64.81
2018-09-01T01:51:00.430Z,64.76
2018-09-01T01:51:21.141Z,64.78
2018-09-01T01:51:41.004Z,64.86
2018-09-01T01:52:01.367Z,64.84
2018-09-01T01:52:22.030Z,64.89
2018-09-01T01:52:41.927Z,64.83
2018-09-01T01:53:02.341Z,64.95
2018-09-01T01:53:22.985Z,64.97
2018-09-01T01:53:42.894Z,65.03
2018-09-01T01:54:03.593Z,64.94
2018-09-01T01:54:23.893Z,64.88
2018-09-01T01:54:43.919Z,64.99
2018-09-01T01:55:04.163Z,65.15
2018-09-01T01:55:24.273Z,65.10
2018-09-01T01:55:44.133Z,65.18
2018-09-01T01:56:04.854Z,65.18
2018-09-01T01:56:24.703Z,65.11
2018-09-01T01:56:45.108Z,65.08
2018-09-01T01:57:05.816Z,65.07
2018-09-01T01:57:25.681Z,65.15
2018-09-01T01:57:46.027Z,65.01
2018-09-01T01:58:06.744Z,65.08
2018-09-01T01:58:26.587Z,65.23
2018-09-01T01:58:46.935Z,65.26
2018-09-01T01:59:07.581Z,65.54
2018-09-01T01:59:27.670Z,65.30
2018-09-01T01:59:47.526Z,65.46
2018-09-01T02:00:08.189Z,65.50
2018-09-01T02:00:28.041Z,65.43
2018-09-01T02:00:48.728Z,65.58
2018-09-01T02:01:08.593Z,65.33
2018-09-01T02:01:28.951Z,65.43
2018-09-01T02:01:49.675Z,65.43
2018-09-01T02:02:09.524Z,65.55
2018-09-01T02:02:29.903Z,65.43
2018-09-01T02:02:50.627Z,65.42
2018-09-01T02:03:10.536Z,65.58
2018-09-01T02:03:31.068Z,65.44
2018-09-01T02:03:51.268Z,65.33
2018-09-01T02:04:11.128Z,65.32
2018-09-01T02:04:31.563Z,65.40
2018-09-01T02:04:52.179Z,65.46
2018-09-01T02:05:12.267Z,65.40
2018-09-01T02:05:32.121Z,65.50
2018-09-01T02:05:52.750Z,65.64
2018-09-01T02:06:12.611Z,65.43
2018-09-01T02:06:33.046Z,65.43
2018-09-01T02:06:53.701Z,65.48
2018-09-01T02:07:13.554Z,65.46
2018-09-01T02:07:34.251Z,65.49
2018-09-01T02:07:54.289Z,65.45
2018-09-01T02:08:14.137Z,65.50
2018-09-01T02:08:34.913Z,65.45
2018-09-01T02:08:54.766Z,65.53
2018-09-01T02:09:15.162Z,65.41
2018-09-01T02:09:35.893Z,65.35
2018-09-01T02:09:55.908Z,65.37
2018-09-01T02:10:15.807Z,65.35
2018-09-01T02:10:36.473Z,65.40
2018-09-01T02:10:56.336Z,65.44
2018-09-01T02:11:16.694Z,65.39
2018-09-01T02:11:37.350Z,65.54
2018-09-01T02:11:57.202Z,65.46
2018-09-01T02:12:17.560Z,65.41
2018-09-01T02:12:38.202Z,65.57
2018-09-01T02:12:58.066Z,65.42
2018-09-01T02:13:18.729Z,65.51
2018-09-01T02:13:39.078Z,65.46
2018-09-01T02:13:58.934Z,65.57
2018-09-01T02:14:19.666Z,65.72
2018-09-01T02:14:39.515Z,65.67
2018-09-01T02:14:59.884Z,65.61
2018-09-01T02:15:20.710Z,65.63
2018-09-01T02:15:40.552Z,65.76
2018-09-01T02:16:00.928Z,65.73
2018-09-01T02:16:21.613Z,65.62
2018-09-01T02:16:41.491Z,65.66
2018-09-01T02:17:02.011Z,65.76
2018-09-01T02:17:22.193Z,65.69
2018-09-01T02:17:42.052Z,65.90
2018-09-01T02:18:02.711Z,65.93
2018-09-01T02:18:22.868Z,65.85
2018-09-01T02:18:42.718Z,65.95
2018-09-01T02:19:03.398Z,66.05
2018-09-01T02:19:23.556Z,66.11
2018-09-01T02:19:43.415Z,66.29
2018-09-01T02:20:04.175Z,66.15
2018-09-01T02:20:24.260Z,66.38
2018-09-01T02:20:44.119Z,66.32
2018-09-01T02:21:04.844Z,66.35
2018-09-01T02:21:24.692Z,66.44
2018-09-01T02:21:45.088Z,66.41
2018-09-01T02:22:05.871Z,66.43
2018-09-01T02:22:25.948Z,66.39
2018-09-01T02:22:45.823Z,66.34
2018-09-01T02:23:06.550Z,66.40
2018-09-01T02:23:26.463Z,66.33
2018-09-01T02:23:46.871Z,66.40
2018-09-01T02:24:07.510Z,66.48
2018-09-01T02:24:27.365Z,66.46
2018-09-01T02:24:47.720Z,66.47
2018-09-01T02:25:08.365Z,66.50
2018-09-01T02:25:28.231Z,66.56
2018-09-01T02:25:48.889Z,66.58
2018-09-01T02:26:08.743Z,66.52
2018-09-01T02:26:29.097Z,66.52
2018-09-01T02:26:49.833Z,66.49
2018-09-01T02:27:09.939Z,66.47
2018-09-01T02:27:29.797Z,66.47
2018-09-01T02:27:50.540Z,66.44
2018-09-01T02:28:10.452Z,66.35
2018-09-01T02:28:30.819Z,66.34
2018-09-01T02:28:51.475Z,66.44
2018-09-01T02:29:11.331Z,66.28
2018-09-01T02:29:31.683Z,66.24
2018-09-01T02:29:52.341Z,66.30
2018-09-01T02:30:12.408Z,66.28
2018-09-01T02:30:32.267Z,66.31
2018-09-01T02:30:52.902Z,66.45
2018-09-01T02:31:12.755Z,66.55
2018-09-01T02:31:33.362Z,66.55
2018-09-01T02:31:53.514Z,66.59
2018-09-01T02:32:13.366Z,66.59
2018-09-01T02:32:34.087Z,66.63
2018-09-01T02:32:54.215Z,66.79
2018-09-01T02:33:14.286Z,66.63
2018-09-01T02:33:34.545Z,66.56
2018-09-01T02:33:54.540Z,66.67
2018-09-01T02:34:14.900Z,66.71
2018-09-01T02:34:35.601Z,66.89
2018-09-01T02:34:55.467Z,67.06
2018-09-01T02:35:15.820Z,66.95
2018-09-01T02:35:36.483Z,66.95
2018-09-01T02:35:56.324Z,67.05
2018-09-01T02:36:16.678Z,66.97
2018-09-01T02:36:37.339Z,67.01
2018-09-01T02:36:57.222Z,67.03
2018-09-01T02:37:17.576Z,66.98
2018-09-01T02:37:38.232Z,66.99
2018-09-01T02:37:58.091Z,66.95
2018-09-01T02:38:18.802Z,67.00
2018-09-01T02:38:38.974Z,67.06
2018-09-01T02:38:58.829Z,67.05
2018-09-01T02:39:19.523Z,67.04
2018-09-01T02:39:39.706Z,67.12
2018-09-01T02:39:59.563Z,67.20
2018-09-01T02:40:20.305Z,67.17
2018-09-01T02:40:40.165Z,67.17
2018-09-01T02:41:00.514Z,67.11
2018-09-01T02:41:21.197Z,67.16
2018-09-01T02:41:41.051Z,67.20
2018-09-01T02:42:01.584Z,67.30
2018-09-01T02:42:21.837Z,67.61
2018-09-01T02:42:41.688Z,67.33
2018-09-01T02:43:02.316Z,67.13
2018-09-01T02:43:22.459Z,67.12
2018-09-01T02:43:42.309Z,67.09
2018-09-01T02:44:02.980Z,67.11
2018-09-01T02:44:23.125Z,67.15
2018-09-01T02:44:42.986Z,67.08
2018-09-01T02:45:03.665Z,67.06
2018-09-01T02:45:23.967Z,67.14
2018-09-01T02:45:43.816Z,67.02
2018-09-01T02:46:04.506Z,67.01
2018-09-01T02:46:24.361Z,67.07
2018-09-01T02:46:44.728Z,66.97
2018-09-01T02:47:05.434Z,67.13
2018-09-01T02:47:25.285Z,67.02
2018-09-01T02:47:45.634Z,66.93
2018-09-01T02:48:06.334Z,66.97
2018-09-01T02:48:26.179Z,66.93
2018-09-01T02:48:46.539Z,66.90
2018-09-01T02:49:07.216Z,66.83
2018-09-01T02:49:27.073Z,67.12
2018-09-01T02:49:47.421Z,67.12
2018-09-01T02:50:08.044Z,67.02
2018-09-01T02:50:27.911Z,66.98
2018-09-01T02:50:48.495Z,67.07
2018-09-01T02:51:08.417Z,66.97
2018-09-01T02:51:28.767Z,67.02
2018-09-01T02:51:49.465Z,67.02
2018-09-01T02:52:09.314Z,67.24
2018-09-01T02:52:29.667Z,67.22
2018-09-01T02:52:50.477Z,67.48
2018-09-01T02:53:10.279Z,67.33
2018-09-01T02:53:30.640Z,67.43
2018-09-01T02:53:51.335Z,67.71
2018-09-01T02:54:11.276Z,67.47
2018-09-01T02:54:31.626Z,67.50
2018-09-01T02:54:52.318Z,67.41
2018-09-01T02:55:12.184Z,67.68
2018-09-01T02:55:32.570Z,67.71
2018-09-01T02:55:53.224Z,67.62
2018-09-01T02:56:13.080Z,67.69
2018-09-01T02:56:33.771Z,67.41
2018-09-01T02:56:53.901Z,67.40
2018-09-01T02:57:13.749Z,67.36
2018-09-01T02:57:34.436Z,67.22
2018-09-01T02:57:54.759Z,67.21
2018-09-01T02:58:14.605Z,67.32
2018-09-01T02:58:35.342Z,67.31
2018-09-01T02:58:55.199Z,67.10
2018-09-01T02:59:15.558Z,67.16
2018-09-01T02:59:36.320Z,67.04
2018-09-01T02:59:56.217Z,67.08
2018-09-01T03:00:16.843Z,67.08
2018-09-01T03:00:37.033Z,67.09
2018-09-01T03:00:56.885Z,67.14
2018-09-01T03:01:17.252Z,67.20
2018-09-01T03:01:37.894Z,67.33
2018-09-01T03:01:57.760Z,67.52
2018-09-01T03:02:18.521Z,67.42
2018-09-01T03:02:38.664Z,67.46
2018-09-01T03:02:58.526Z,67.36
2018-09-01T03:03:19.202Z,67.32
2018-09-01T03:03:39.263Z,67.51
2018-09-01T03:03:59.229Z,67.43
2018-09-01T03:04:19.954Z,67.42
2018-09-01T03:04:39.850Z,67.45
2018-09-01T03:05:00.216Z,67.46
2018-09-01T03:05:20.897Z,67.45
2018-09-01T03:05:40.758Z,67.45
2018-09-01T03:06:01.121Z,67.45
2018-09-01T03:06:21.850Z,67.43
2018-09-01T03:06:41.702Z,67.47
2018-09-01T03:07:02.382Z,67.42
2018-09-01T03:07:22.516Z,67.48
2018-09-01T03:07:42.368Z,67.40
2018-09-01T03:08:02.980Z,67.45
2018-09-01T03:08:23.116Z,67.56
2018-09-01T03:08:42.970Z,67.52
2018-09-01T03:09:03.685Z,67.56
2018-09-01T03:09:23.833Z,67.83
2018-09-01T03:09:43.689Z,67.79
2018-09-01T03:10:04.412Z,68.01
2018-09-01T03:10:24.469Z,68.25
2018-09-01T03:10:44.340Z,67.95
2018-09-01T03:11:05.038Z,68.07
2018-09-01T03:11:24.893Z,68.04
2018-09-01T03:11:45.260Z,68.08
2018-09-01T03:12:06.005Z,68.02
2018-09-01T03:12:25.964Z,67.98
2018-09-01T03:12:46.321Z,68.06
2018-09-01T03:13:07.038Z,68.14
2018-09-01T03:13:26.878Z,68.22
2018-09-01T03:13:47.233Z,68.10
2018-09-01T03:14:07.878Z,68.24
2018-09-01T03:14:27.743Z,68.01
2018-09-01T03:14:48.232Z,68.11
2018-09-01T03:15:08.882Z,68.04
2018-09-01T03:15:28.890Z,68.15
2018-09-01T03:15:49.098Z,68.18
2018-09-01T03:16:09.081Z,68.28
2018-09-01T03:16:29.560Z,68.22
2018-09-01T03:16:50.266Z,68.07
2018-09-01T03:17:10.291Z,68.14
2018-09-01T03:17:30.150Z,68.14
2018-09-01T03:17:50.850Z,68.43
2018-09-01T03:18:10.700Z,68.07
2018-09-01T03:18:31.054Z,68.10
2018-09-01T03:18:51.771Z,68.14
2018-09-01T03:19:11.640Z,68.13
2018-09-01T03:19:32.001Z,68.30
2018-09-01T03:19:52.645Z,68.17
2018-09-01T03:20:12.501Z,68.12
2018-09-01T03:20:32.906Z,68.40
2018-09-01T03:20:53.563Z,68.26
2018-09-01T03:21:13.422Z,68.34
2018-09-01T03:21:34.113Z,68.25
2018-09-01T03:21:54.169Z,68.15
2018-09-01T03:22:14.014Z,68.19
2018-09-01T03:22:34.714Z,68.12
2018-09-01T03:22:54.576Z,68.02
2018-09-01T03:23:14.923Z,67.99
2018-09-01T03:23:35.683Z,68.00
2018-09-01T03:23:55.540Z,68.04
2018-09-01T03:24:15.892Z,68.15
2018-09-01T03:24:36.621Z,68.13
2018-09-01T03:24:56.523Z,68.00
2018-09-01T03:25:17.020Z,68.00
2018-09-01T03:25:37.654Z,68.04
2018-09-01T03:25:57.519Z,67.95
2018-09-01T03:26:17.920Z,67.90
2018-09-01T03:26:58.287Z,67.94
2018-09-01T03:27:19.017Z,67.96
2018-09-01T03:27:39.166Z,67.99
2018-09-01T03:27:59.030Z,67.84
2018-09-01T03:28:19.734Z,67.82
2018-09-01T03:28:39.583Z,67.85
2018-09-01T03:28:59.967Z,67.82
2018-09-01T03:29:20.675Z,67.79
2018-09-01T03:29:40.795Z,67.82
2018-09-01T03:30:21.023Z,67.75
2018-09-01T03:30:40.876Z,67.96
2018-09-01T03:31:01.439Z,67.75
2018-09-01T03:31:21.589Z,67.72
2018-09-01T03:31:41.442Z,67.75
2018-09-01T03:32:01.854Z,67.71
2018-09-01T03:32:22.506Z,67.68
2018-09-01T03:32:42.438Z,67.74
2018-09-01T03:33:03.114Z,67.86
2018-09-01T03:33:23.269Z,67.81
2018-09-01T03:33:43.132Z,67.87
2018-09-01T03:34:03.929Z,67.81
2018-09-01T03:34:24.085Z,67.78
2018-09-01T03:34:43.938Z,67.93
2018-09-01T03:35:04.645Z,67.81
2018-09-01T03:35:24.500Z,67.97
2018-09-01T03:35:44.896Z,67.93
2018-09-01T03:36:05.548Z,67.87
2018-09-01T03:36:25.417Z,68.00
2018-09-01T03:36:45.760Z,67.94
2018-09-01T03:37:06.458Z,67.93
2018-09-01T03:37:26.315Z,67.87
2018-09-01T03:37:46.673Z,67.82
2018-09-01T03:38:07.348Z,67.90
2018-09-01T03:38:27.345Z,67.83
2018-09-01T03:38:51.008Z,67.97
2018-09-01T03:39:07.995Z,67.88
2018-09-01T03:39:28.515Z,67.77
2018-09-01T03:39:48.711Z,67.91
2018-09-01T03:40:08.821Z,67.83
2018-09-01T03:40:28.672Z,67.79
2018-09-01T03:40:49.378Z,67.73
2018-09-01T03:41:09.376Z,67.72
2018-09-01T03:41:29.742Z,67.83
2018-09-01T03:41:50.443Z,67.90
2018-09-01T03:42:10.299Z,67.90
2018-09-01T03:42:30.653Z,67.95
2018-09-01T03:42:51.314Z,68.00
2018-09-01T03:43:11.186Z,67.94
2018-09-01T03:43:31.553Z,68.02
2018-09-01T03:43:52.259Z,67.89
2018-09-01T03:44:12.115Z,67.99
2018-09-01T03:44:32.503Z,68.07
2018-09-01T03:44:53.151Z,67.96
2018-09-01T03:45:13.165Z,68.01
2018-09-01T03:45:33.201Z,68.18
2018-09-01T03:45:53.807Z,68.01
2018-09-01T03:46:13.665Z,68.10
2018-09-01T03:46:34.380Z,68.01
2018-09-01T03:46:54.619Z,68.07
2018-09-01T03:47:14.567Z,68.28
2018-09-01T03:47:35.253Z,68.18
2018-09-01T03:47:55.200Z,68.21
2018-09-01T03:48:15.544Z,68.25
2018-09-01T03:48:36.227Z,68.36
2018-09-01T03:48:56.156Z,68.30
2018-09-01T03:49:16.560Z,68.28
2018-09-01T03:49:37.249Z,68.33
2018-09-01T03:49:57.107Z,68.30
2018-09-01T03:50:17.705Z,68.41
2018-09-01T03:50:37.854Z,68.43
2018-09-01T03:51:17.738Z,68.26
2018-09-01T03:51:38.134Z,68.36
2018-09-01T03:51:58.500Z,68.48
2018-09-01T03:52:19.276Z,68.95
2018-09-01T03:52:39.223Z,68.68
2018-09-01T03:52:59.835Z,68.78
2018-09-01T03:53:20.092Z,68.77
2018-09-01T03:53:39.934Z,68.74
2018-09-01T03:54:00.327Z,68.61
2018-09-01T03:54:21.040Z,68.70
2018-09-01T03:54:40.912Z,68.60
2018-09-01T03:55:01.306Z,68.80
2018-09-01T03:55:21.955Z,68.73
2018-09-01T03:56:02.097Z,68.70
2018-09-01T03:56:22.288Z,68.74
2018-09-01T03:56:42.149Z,68.81
2018-09-01T03:57:02.547Z,69.30
2018-09-01T03:57:23.229Z,69.08
2018-09-01T03:57:43.091Z,68.98
2018-09-01T03:58:03.809Z,68.99
2018-09-01T03:58:23.969Z,69.02
2018-09-01T03:58:43.838Z,68.94
2018-09-01T03:59:04.474Z,69.07
2018-09-01T03:59:24.637Z,69.02
2018-09-01T03:59:44.481Z,69.16
2018-09-01T04:00:05.273Z,68.93
2018-09-01T04:00:25.205Z,69.25
2018-09-01T04:00:45.617Z,69.16
2018-09-01T04:01:06.296Z,69.28
2018-09-01T04:01:26.184Z,69.18
2018-09-01T04:01:46.546Z,69.03
2018-09-01T04:02:07.218Z,68.98
2018-09-01T04:02:27.141Z,69.11
2018-09-01T04:03:07.792Z,69.45
2018-09-01T04:03:27.636Z,69.48
2018-09-01T04:03:48.085Z,69.48
2018-09-01T04:04:08.737Z,69.37
2018-09-01T04:04:28.582Z,69.32
2018-09-01T04:04:49.309Z,69.27
2018-09-01T04:05:09.463Z,69.15
2018-09-01T04:05:29.436Z,69.07
2018-09-01T04:05:50.146Z,69.25
2018-09-01T04:06:09.989Z,69.20
2018-09-01T04:06:30.340Z,69.40
2018-09-01T04:06:51.143Z,69.42
2018-09-01T04:07:10.995Z,69.31
2018-09-01T04:07:31.351Z,69.46
2018-09-01T04:07:52.102Z,69.57
2018-09-01T04:08:12.011Z,69.30
2018-09-01T04:08:32.563Z,69.35
2018-09-01T04:08:52.727Z,69.36
2018-09-01T04:09:12.574Z,69.39
2018-09-01T04:09:32.990Z,69.32
2018-09-01T04:09:53.602Z,69.32
2018-09-01T04:10:13.577Z,69.49
2018-09-01T04:10:34.251Z,69.62
2018-09-01T04:10:54.216Z,69.52
2018-09-01T04:11:14.575Z,69.49
2018-09-01T04:11:35.307Z,69.58
2018-09-01T04:11:55.170Z,69.62
2018-09-01T04:12:15.511Z,69.60
2018-09-01T04:12:36.264Z,69.86
2018-09-01T04:12:56.120Z,69.83
2018-09-01T04:13:16.471Z,69.76
2018-09-01T04:13:37.106Z,69.87
2018-09-01T04:13:57.231Z,69.79
2018-09-01T04:14:17.105Z,69.79
2018-09-01T04:14:37.745Z,69.85
2018-09-01T04:14:57.781Z,69.89
2018-09-01T04:15:17.636Z,69.88
2018-09-01T04:15:38.289Z,69.87
2018-09-01T04:15:58.156Z,69.99
2018-09-01T04:16:18.897Z,70.17
2018-09-01T04:16:38.972Z,70.10
2018-09-01T04:16:59.049Z,69.99
2018-09-01T04:17:19.304Z,70.33
2018-09-01T04:17:39.457Z,70.11
2018-09-01T04:17:59.312Z,70.08
2018-09-01T04:18:20.047Z,70.18
2018-09-01T04:18:39.897Z,70.10
2018-09-01T04:19:00.329Z,70.01
2018-09-01T04:19:20.997Z,70.17
2018-09-01T04:19:40.972Z,70.47
2018-09-01T04:20:01.330Z,70.21
2018-09-01T04:20:22.010Z,70.21
2018-09-01T04:20:41.928Z,70.21
2018-09-01T04:21:02.636Z,70.25
2018-09-01T04:21:22.772Z,70.17
2018-09-01T04:21:42.636Z,70.31
2018-09-01T04:22:03.037Z,70.28
2018-09-01T04:22:23.696Z,70.55
2018-09-01T04:22:43.559Z,70.28
2018-09-01T04:23:04.281Z,70.28
2018-09-01T04:23:24.314Z,70.26
2018-09-01T04:23:44.174Z,70.40
2018-09-01T04:24:04.926Z,70.38
2018-09-01T04:24:24.779Z,70.49
2018-09-01T04:24:45.140Z,70.31
2018-09-01T04:25:05.857Z,70.20